Time;durP1;ratioP1;P1;durP2;ratioP2;P2;SDS_P1;SDS_P2;PMS_P1;PMS_P2;Temp;Humidity;BMP_temperature;BMP_pressure;BME280_temperature;BME280_humidity;BME280_pressure;Samples;Min_cycle;Max_cycle;Signal;HPM_P1;HPM_P2
2022/07/01 00:03:30;;;;;;;13.70;8.07;;;;;11.90;101018.00;;;;10516111;28;20240;-73
2022/07/01 00:08:32;;;;;;;15.67;7.23;;;;;11.80;101022.00;;;;10506604;28;20189;-73
2022/07/01 00:13:34;;;;;;;14.80;7.17;;;;;11.80;101006.00;;;;10473298;28;20197;-73
2022/07/01 00:18:36;;;;;;;12.40;7.17;;;;;11.80;101003.00;;;;10506138;28;20192;-73
2022/07/01 00:23:38;;;;;;;13.90;7.57;;;;;11.80;100993.00;;;;10505943;28;20205;-73
2022/07/01 00:28:40;;;;;;;12.27;6.97;;;;;11.70;100986.00;;;;10489056;28;20528;-73
2022/07/01 00:33:42;;;;;;;12.90;7.50;;;;;11.60;100986.00;;;;10480533;28;20281;-73
2022/07/01 00:38:45;;;;;;;15.23;8.23;;;;;11.60;100996.00;;;;10464081;28;20217;-73
2022/07/01 00:43:47;;;;;;;13.30;7.60;;;;;11.60;101010.00;;;;10480219;28;20292;-73
2022/07/01 00:48:58;;;;;;;15.33;8.53;;;;;11.50;101024.00;;;;10464847;28;20207;-75
2022/07/01 00:54:01;;;;;;;11.77;7.70;;;;;11.60;101028.00;;;;10463547;28;20186;-75
2022/07/01 00:59:03;;;;;;;13.17;8.50;;;;;11.60;101049.00;;;;10463154;28;20750;-76
2022/07/01 01:04:05;;;;;;;19.07;8.43;;;;;11.70;101045.00;;;;10490580;28;20262;-76
2022/07/01 01:09:07;;;;;;;20.47;8.40;;;;;11.70;101047.00;;;;10499378;28;20667;-76
2022/07/01 01:14:10;;;;;;;12.87;9.00;;;;;11.70;101068.00;;;;10462751;28;20270;-76
2022/07/01 01:19:12;;;;;;;17.67;8.57;;;;;11.70;101075.00;;;;10479363;28;20194;-76
2022/07/01 01:24:13;;;;;;;16.47;9.00;;;;;11.80;101070.00;;;;10478819;28;20209;-76
2022/07/01 01:29:16;;;;;;;20.17;9.47;;;;;11.90;101079.00;;;;10446188;28;20674;-76
2022/07/01 01:34:18;;;;;;;18.27;9.13;;;;;11.90;101070.00;;;;10450243;28;20215;-76
2022/07/01 01:39:20;;;;;;;23.17;10.17;;;;;11.90;101086.00;;;;10495118;28;20193;-76
2022/07/01 01:44:22;;;;;;;21.90;10.07;;;;;11.90;101090.00;;;;10461275;28;20261;-76
2022/07/01 01:49:25;;;;;;;18.27;9.60;;;;;11.90;101099.00;;;;10461314;28;20190;-76
2022/07/01 01:54:27;;;;;;;21.17;10.50;;;;;11.90;101105.00;;;;10497985;28;20191;-76
2022/07/01 01:59:29;;;;;;;20.83;10.13;;;;;11.90;101111.00;;;;10502795;28;20239;-75
2022/07/01 02:04:31;;;;;;;20.73;10.63;;;;;11.90;101080.00;;;;10500801;28;20258;-75
2022/07/01 02:09:33;;;;;;;22.57;10.87;;;;;11.90;101077.00;;;;10486098;28;20196;-76
2022/07/01 02:14:35;;;;;;;21.60;10.90;;;;;11.90;101077.00;;;;10502283;28;20200;-76
2022/07/01 02:19:38;;;;;;;20.67;10.63;;;;;11.90;101070.00;;;;10485961;28;20234;-75
2022/07/01 02:24:40;;;;;;;26.10;11.63;;;;;11.90;101071.00;;;;10485514;28;20629;-76
2022/07/01 02:29:42;;;;;;;24.00;11.63;;;;;11.90;101073.00;;;;10502199;28;20193;-76
2022/07/01 02:34:44;;;;;;;27.90;12.73;;;;;11.90;101066.00;;;;10459950;28;20201;-75
2022/07/01 02:39:46;;;;;;;28.23;13.70;;;;;11.90;101061.00;;;;10444110;28;20197;-75
2022/07/01 02:44:48;;;;;;;21.10;12.07;;;;;11.90;101075.00;;;;10460863;28;20186;-75
2022/07/01 02:49:55;;;;;;;24.03;12.03;;;;;11.90;101089.00;;;;10428545;28;20557;-75
2022/07/01 02:54:57;;;;;;;25.83;10.87;;;;;11.80;101094.00;;;;10476729;28;20198;-76
2022/07/01 02:59:59;;;;;;;27.43;11.40;;;;;11.80;101103.00;;;;10515038;28;20200;-76
2022/07/01 03:05:02;;;;;;;23.60;10.97;;;;;11.80;101102.00;;;;10451155;28;20288;-75
2022/07/01 03:10:06;;;;;;;21.77;11.37;;;;;11.90;101115.00;;;;10443739;28;20214;-75
2022/07/01 03:15:13;;;;;;;25.57;12.30;;;;;11.90;101126.00;;;;10459775;28;20193;-76
2022/07/01 03:20:17;;;;;;;19.23;10.67;;;;;11.80;101118.00;;;;10443077;28;20206;-76
2022/07/01 03:25:19;;;;;;;20.80;11.40;;;;;11.80;101113.00;;;;10446182;28;20194;-75
2022/07/01 03:30:21;;;;;;;17.80;11.03;;;;;11.80;101125.00;;;;10467105;28;20216;-76
2022/07/01 03:35:45;;;;;;;25.07;11.53;;;;;11.80;101119.00;;;;10505957;28;20181;-76
2022/07/01 03:40:47;;;;;;;29.33;13.33;;;;;11.90;101132.00;;;;10491267;28;20307;-76
2022/07/01 03:45:49;;;;;;;19.60;12.50;;;;;11.90;101153.00;;;;10474817;28;20216;-76
2022/07/01 03:50:51;;;;;;;25.87;12.67;;;;;11.90;101152.00;;;;10507536;28;20186;-76
2022/07/01 03:55:53;;;;;;;28.03;14.57;;;;;12.00;101156.00;;;;10523891;28;20251;-76
2022/07/01 04:00:55;;;;;;;28.93;15.20;;;;;12.20;101160.00;;;;10506789;28;20215;-75
2022/07/01 04:05:57;;;;;;;26.17;16.37;;;;;12.30;101165.00;;;;10507058;28;20190;-75
2022/07/01 04:10:59;;;;;;;25.23;16.63;;;;;12.40;101161.00;;;;10523233;28;20227;-75
2022/07/01 04:16:02;;;;;;;34.80;18.23;;;;;12.60;101166.00;;;;10482372;28;20572;-76
2022/07/01 04:26:24;;;;;;;33.07;18.20;;;;;12.50;101175.00;;;;10499253;28;20193;-75
2022/07/01 04:31:41;;;;;;;33.53;19.93;;;;;12.40;101179.00;;;;10472617;28;20197;-75
2022/07/01 04:36:43;;;;;;;29.13;19.13;;;;;12.30;101182.00;;;;10504714;28;20197;-75
2022/07/01 04:42:01;;;;;;;25.43;17.13;;;;;12.20;101173.00;;;;10522204;28;20852;-75
2022/07/01 04:47:04;;;;;;;23.73;16.43;;;;;12.20;101184.00;;;;10522191;28;20189;-76
2022/07/01 04:52:06;;;;;;;23.33;14.97;;;;;12.20;101188.00;;;;10505411;28;20197;-75
2022/07/01 04:57:08;;;;;;;23.00;14.63;;;;;12.20;101207.00;;;;10505012;28;20296;-75
2022/07/01 05:02:10;;;;;;;21.13;14.00;;;;;12.50;101198.00;;;;10521546;28;20278;-76
2022/07/01 05:07:28;;;;;;;17.70;11.77;;;;;13.20;101195.00;;;;10521805;28;20271;-76
2022/07/01 05:12:30;;;;;;;24.60;14.83;;;;;14.00;101192.00;;;;10488204;27;20192;-76
2022/07/01 05:22:54;;;;;;;19.20;10.43;;;;;14.80;101190.00;;;;10504116;28;20227;-76
2022/07/01 05:27:56;;;;;;;16.87;9.13;;;;;14.50;101192.00;;;;10504865;28;20535;-76
2022/07/01 05:32:58;;;;;;;10.20;7.57;;;;;14.20;101197.00;;;;10484772;28;20723;-76
2022/07/01 05:38:00;;;;;;;16.67;8.00;;;;;15.00;101194.00;;;;10462654;28;20198;-77
2022/07/01 05:43:02;;;;;;;11.93;6.80;;;;;15.70;101193.00;;;;10463051;28;20201;-77
2022/07/01 05:48:04;;;;;;;9.90;5.53;;;;;16.10;101205.00;;;;10478635;28;20189;-77
2022/07/01 05:53:07;;;;;;;9.17;4.63;;;;;16.60;101209.00;;;;10462617;28;20182;-78
2022/07/01 05:58:12;;;;;;;6.97;3.92;;;;;17.00;101207.00;;;;10485152;28;20208;-76
2022/07/01 06:03:14;;;;;;;9.10;3.38;;;;;17.30;101207.00;;;;10503430;28;20633;-77
2022/07/01 06:08:17;;;;;;;6.32;2.90;;;;;17.60;101221.00;;;;10520032;28;20238;-78
2022/07/01 06:13:18;;;;;;;4.50;2.38;;;;;17.80;101220.00;;;;10469937;28;20258;-77
2022/07/01 06:18:20;;;;;;;6.32;2.47;;;;;18.10;101226.00;;;;10486586;28;20193;-77
2022/07/01 06:23:22;;;;;;;8.55;2.60;;;;;18.30;101224.00;;;;10470340;28;20209;-78
2022/07/01 06:28:29;;;;;;;7.20;2.10;;;;;18.60;101229.00;;;;10486849;28;20189;-78
2022/07/01 06:33:32;;;;;;;8.30;2.20;;;;;18.90;101226.00;;;;10495858;28;20221;-78
2022/07/01 06:38:34;;;;;;;4.10;2.53;;;;;19.20;101232.00;;;;10460752;28;20193;-79
2022/07/01 06:43:36;;;;;;;3.40;1.67;;;;;19.50;101235.00;;;;10502728;28;20204;-77
2022/07/01 06:48:38;;;;;;;4.00;1.35;;;;;19.50;101234.00;;;;10501837;28;20189;-77
2022/07/01 06:53:41;;;;;;;6.50;1.63;;;;;19.60;101237.00;;;;10495371;28;20193;-77
2022/07/01 06:58:43;;;;;;;4.35;1.63;;;;;18.70;101236.00;;;;10480073;28;20247;-77
2022/07/01 07:03:45;;;;;;;6.38;1.50;;;;;19.40;101248.00;;;;10478411;28;20760;-77
2022/07/01 07:08:47;;;;;;;4.05;1.42;;;;;20.20;101255.00;;;;10542732;28;20238;-77
2022/07/01 07:13:49;;;;;;;6.53;1.35;;;;;20.40;101255.00;;;;10484164;28;20664;-78
2022/07/01 07:18:51;;;;;;;5.32;1.30;;;;;20.70;101255.00;;;;10483461;28;20193;-78
2022/07/01 07:23:53;;;;;;;4.50;1.60;;;;;19.20;101255.00;;;;10467045;28;20265;-78
2022/07/01 07:28:55;;;;;;;6.13;1.42;;;;;20.30;101248.00;;;;10502742;28;20819;-78
2022/07/01 07:33:57;;;;;;;5.07;1.80;;;;;20.30;101247.00;;;;10501720;28;20224;-78
2022/07/01 07:38:59;;;;;;;6.05;1.63;;;;;20.50;101256.00;;;;10491840;28;20200;-78
2022/07/01 07:44:01;;;;;;;6.30;1.52;;;;;21.30;101257.00;;;;10482143;28;20240;-78
2022/07/01 07:49:03;;;;;;;6.43;1.20;;;;;21.80;101261.00;;;;10492060;28;20188;-78
2022/07/01 07:54:05;;;;;;;4.40;1.10;;;;;21.70;101262.00;;;;10548079;28;20176;-78
2022/07/01 07:59:07;;;;;;;7.70;1.55;;;;;22.20;101267.00;;;;10514916;28;20212;-78
2022/07/01 08:04:09;;;;;;;4.65;1.58;;;;;21.30;101265.00;;;;10475989;28;20212;-78
2022/07/01 08:09:12;;;;;;;2.53;1.02;;;;;23.30;101266.00;;;;10525242;28;20543;-78
2022/07/01 08:14:14;;;;;;;2.47;1.20;;;;;23.60;101281.00;;;;10528695;28;20197;-78
2022/07/01 08:19:20;;;;;;;3.35;1.60;;;;;24.50;101273.00;;;;10540295;28;20196;-77
2022/07/01 08:24:22;;;;;;;3.50;1.00;;;;;25.00;101272.00;;;;10531839;28;20670;-78
2022/07/01 08:29:24;;;;;;;4.25;1.42;;;;;25.20;101266.00;;;;10528859;28;20247;-78
2022/07/01 08:34:26;;;;;;;7.55;1.27;;;;;23.50;101277.00;;;;10481694;28;20186;-78
2022/07/01 08:39:28;;;;;;;2.72;1.00;;;;;22.90;101278.00;;;;10465114;28;20181;-78
2022/07/01 08:44:31;;;;;;;3.45;1.05;;;;;23.60;101268.00;;;;10465227;28;20268;-78
2022/07/01 08:49:33;;;;;;;3.38;1.25;;;;;25.40;101274.00;;;;10448721;28;20245;-78
2022/07/01 08:54:37;;;;;;;4.15;1.08;;;;;26.10;101279.00;;;;10464286;28;20227;-78
2022/07/01 08:59:39;;;;;;;5.43;0.95;;;;;26.40;101275.00;;;;10464385;28;20206;-78
2022/07/01 09:04:41;;;;;;;2.50;1.00;;;;;26.80;101279.00;;;;10497536;28;20267;-78
2022/07/01 09:09:44;;;;;;;3.47;0.90;;;;;26.60;101269.00;;;;10505735;28;20188;-78
2022/07/01 09:14:46;;;;;;;5.78;1.17;;;;;27.90;101276.00;;;;10505363;28;20189;-78
2022/07/01 09:19:50;;;;;;;4.47;0.80;;;;;27.70;101275.00;;;;10488695;28;20291;-78
2022/07/01 09:24:52;;;;;;;5.10;0.95;;;;;27.90;101284.00;;;;10504184;28;20197;-78
2022/07/01 09:29:54;;;;;;;3.40;0.93;;;;;28.10;101286.00;;;;10488010;28;20201;-78
2022/07/01 09:34:56;;;;;;;4.95;1.40;;;;;28.30;101283.00;;;;10479822;28;20224;-78
2022/07/01 09:39:59;;;;;;;5.35;1.20;;;;;27.60;101302.00;;;;10463322;28;20280;-78
2022/07/01 09:45:11;;;;;;;5.38;1.35;;;;;24.50;101313.00;;;;10446433;28;20214;-78
2022/07/01 09:50:13;;;;;;;4.32;1.10;;;;;25.30;101306.00;;;;10446088;28;20189;-78
2022/07/01 09:55:15;;;;;;;4.57;1.48;;;;;26.60;101301.00;;;;10462278;28;20281;-78
2022/07/01 10:00:17;;;;;;;1.83;0.95;;;;;27.80;101301.00;;;;10520114;28;20296;-78
2022/07/01 10:05:23;;;;;;;3.40;1.00;;;;;29.40;101300.00;;;;10470618;28;20209;-78
2022/07/01 10:10:50;;;;;;;3.60;1.20;;;;;27.40;101314.00;;;;10520216;28;20199;-78
2022/07/01 10:15:54;;;;;;;2.42;1.25;;;;;25.00;101319.00;;;;10486743;28;20200;-78
2022/07/01 10:20:57;;;;;;;3.97;1.20;;;;;22.90;101327.00;;;;10487263;28;20655;-78
2022/07/01 10:26:04;;;;;;;4.60;1.52;;;;;24.30;101320.00;;;;10538259;28;20189;-78
2022/07/01 10:31:13;;;;;;;5.13;1.40;;;;;26.20;101323.00;;;;10470861;28;20207;-78
2022/07/01 10:36:17;;;;;;;3.30;1.35;;;;;27.80;101309.00;;;;10508113;28;20264;-78
2022/07/01 10:41:24;;;;;;;1.95;1.17;;;;;28.70;101321.00;;;;10494964;28;20211;-78
2022/07/01 10:46:46;;;;;;;3.67;1.30;;;;;28.20;101313.00;;;;10494346;28;20200;-76
2022/07/01 10:51:51;;;;;;;4.00;1.40;;;;;27.10;101332.00;;;;10477748;28;20238;-76
2022/07/01 10:56:53;;;;;;;3.75;1.17;;;;;27.70;101321.00;;;;10510581;28;20280;-76
2022/07/01 11:01:54;;;;;;;4.00;1.30;;;;;26.70;101327.00;;;;10467527;28;20264;-77
2022/07/01 11:06:57;;;;;;;1.75;1.00;;;;;25.00;101324.00;;;;10468865;28;20197;-77
2022/07/01 11:11:59;;;;;;;1.63;0.80;;;;;25.30;101320.00;;;;10452449;28;20190;-76
2022/07/01 11:17:02;;;;;;;1.48;0.70;;;;;27.20;101309.00;;;;10468172;28;20212;-76
2022/07/01 11:22:05;;;;;;;3.20;0.68;;;;;28.40;101314.00;;;;10467722;28;20213;-78
2022/07/01 11:27:08;;;;;;;2.05;0.77;;;;;26.50;101325.00;;;;10485084;28;20178;-76
2022/07/01 11:32:10;;;;;;;5.32;1.10;;;;;27.10;101325.00;;;;10463903;28;20228;-76
2022/07/01 11:42:35;;;;;;;1.45;0.77;;;;;29.80;101322.00;;;;10509034;28;20671;-77
2022/07/01 11:47:36;;;;;;;2.95;0.80;;;;;29.90;101324.00;;;;10508541;28;20250;-77
2022/07/01 11:52:38;;;;;;;2.97;0.70;;;;;30.40;101304.00;;;;10525534;28;20193;-77
2022/07/01 11:57:40;;;;;;;3.25;0.70;;;;;30.40;101311.00;;;;10492010;28;20213;-77
2022/07/01 12:02:42;;;;;;;2.40;0.90;;;;;30.20;101308.00;;;;10492029;28;20235;-77
2022/07/01 12:07:46;;;;;;;2.45;0.88;;;;;30.00;101308.00;;;;10491846;28;20192;-77
2022/07/01 12:12:48;;;;;;;3.20;1.10;;;;;30.70;101311.00;;;;10507712;28;20189;-77
2022/07/01 12:17:50;;;;;;;2.97;0.75;;;;;31.00;101311.00;;;;10491341;28;20185;-77
2022/07/01 12:22:52;;;;;;;2.60;0.90;;;;;30.60;101308.00;;;;10490918;28;20209;-77
2022/07/01 12:27:54;;;;;;;2.28;0.80;;;;;30.30;101306.00;;;;10524616;28;20185;-77
2022/07/01 12:32:56;;;;;;;1.08;0.70;;;;;30.10;101302.00;;;;10506624;28;20212;-77
2022/07/01 12:38:00;;;;;;;2.78;0.63;;;;;30.30;101295.00;;;;10507200;28;20185;-77
2022/07/01 12:43:06;;;;;;;2.72;0.88;;;;;30.50;101289.00;;;;10490551;28;20212;-77
2022/07/01 12:48:08;;;;;;;4.78;0.73;;;;;28.70;101292.00;;;;10490419;28;20181;-77
2022/07/01 12:53:17;;;;;;;2.95;0.90;;;;;28.50;101283.00;;;;10473885;28;20272;-77
2022/07/01 12:58:23;;;;;;;2.17;0.82;;;;;30.50;101303.00;;;;10488617;28;20209;-77
2022/07/01 13:03:27;;;;;;;4.07;0.93;;;;;28.90;101309.00;;;;10505631;28;20299;-78
2022/07/01 13:08:30;;;;;;;4.35;0.70;;;;;27.70;101318.00;;;;10487704;28;20239;-77
2022/07/01 13:13:33;;;;;;;2.65;0.88;;;;;27.10;101309.00;;;;10467108;28;20197;-77
2022/07/01 13:18:35;;;;;;;3.20;0.80;;;;;27.60;101314.00;;;;10482015;28;20192;-77
2022/07/01 13:23:37;;;;;;;2.05;0.60;;;;;28.50;101310.00;;;;10465088;28;20197;-77
2022/07/01 13:28:44;;;;;;;3.30;0.75;;;;;27.80;101315.00;;;;10485144;28;20197;-78
2022/07/01 13:33:46;;;;;;;1.10;0.70;;;;;26.30;101320.00;;;;10463946;28;20631;-78
2022/07/01 13:38:48;;;;;;;3.22;1.00;;;;;25.60;101324.00;;;;10494500;28;20228;-79
2022/07/01 13:43:51;;;;;;;2.83;0.90;;;;;25.10;101326.00;;;;10514876;28;20208;-79
2022/07/01 13:48:53;;;;;;;1.95;0.60;;;;;25.70;101325.00;;;;10549699;28;20203;-79
2022/07/01 13:53:57;;;;;;;2.40;0.65;;;;;25.70;101333.00;;;;10533365;28;20207;-79
2022/07/01 13:58:59;;;;;;;3.25;0.80;;;;;25.20;101337.00;;;;10531408;28;20694;-79
2022/07/01 14:04:01;;;;;;;3.03;1.02;;;;;25.20;101337.00;;;;10471200;28;20264;-79
2022/07/01 14:09:03;;;;;;;4.13;0.90;;;;;25.10;101335.00;;;;10514132;28;20228;-79
2022/07/01 14:14:05;;;;;;;2.60;0.70;;;;;25.10;101341.00;;;;10466770;28;20221;-78
2022/07/01 14:19:07;;;;;;;3.72;0.60;;;;;25.30;101357.00;;;;10469552;28;20196;-78
2022/07/01 14:24:09;;;;;;;2.35;0.63;;;;;24.90;101361.00;;;;10453890;28;20236;-78
2022/07/01 14:29:12;;;;;;;1.95;0.60;;;;;23.90;101365.00;;;;10463403;28;20236;-78
2022/07/01 14:34:15;;;;;;;5.05;1.00;;;;;22.40;101371.00;;;;10478545;28;20197;-79
2022/07/01 14:39:18;;;;;;;2.40;0.82;;;;;21.40;101374.00;;;;10448234;28;20683;-79
2022/07/01 14:44:20;;;;;;;3.42;1.30;;;;;21.20;101375.00;;;;10446479;28;20762;-79
2022/07/01 14:49:23;;;;;;;2.75;0.77;;;;;21.70;101367.00;;;;10502229;28;20193;-79
2022/07/01 14:54:25;;;;;;;2.15;0.70;;;;;25.00;101364.00;;;;10499534;28;20189;-79
2022/07/01 14:59:27;;;;;;;3.40;1.02;;;;;25.80;101381.00;;;;10485721;28;20223;-78
2022/07/01 15:04:30;;;;;;;5.88;1.00;;;;;24.70;101378.00;;;;10485934;28;20215;-78
2022/07/01 15:09:33;;;;;;;3.70;0.68;;;;;24.60;101375.00;;;;10519854;28;20275;-79
2022/07/01 15:14:35;;;;;;;1.30;0.70;;;;;24.40;101369.00;;;;10519785;28;20181;-79
2022/07/01 15:19:38;;;;;;;6.07;1.20;;;;;24.00;101378.00;;;;10475625;28;20198;-79
2022/07/01 15:24:40;;;;;;;2.53;0.80;;;;;23.60;101383.00;;;;10442473;28;20363;-79
2022/07/01 15:29:43;;;;;;;2.10;0.85;;;;;23.60;101378.00;;;;10484952;28;20201;-79
2022/07/01 15:34:46;;;;;;;4.43;1.00;;;;;23.80;101382.00;;;;10477495;28;20221;-79
2022/07/01 15:39:48;;;;;;;5.07;1.08;;;;;25.20;101376.00;;;;10485751;28;20214;-79
2022/07/01 15:45:05;;;;;;;4.57;0.77;;;;;24.70;101385.00;;;;10453520;28;20232;-79
2022/07/01 15:50:07;;;;;;;4.20;1.15;;;;;24.30;101382.00;;;;10450928;28;20247;-79
2022/07/01 15:55:09;;;;;;;1.10;0.68;;;;;24.40;101390.00;;;;10451421;28;20190;-79
2022/07/01 16:00:13;;;;;;;3.20;1.10;;;;;23.80;101391.00;;;;10451031;28;20605;-79
2022/07/01 16:05:15;;;;;;;1.70;0.75;;;;;24.30;101391.00;;;;10480245;28;20209;-79
2022/07/01 16:10:33;;;;;;;1.90;0.95;;;;;25.00;101379.00;;;;10483357;28;20198;-79
2022/07/01 16:15:37;;;;;;;4.75;1.15;;;;;25.10;101391.00;;;;10500081;28;20193;-79
2022/07/01 16:20:42;;;;;;;3.63;0.82;;;;;24.50;101385.00;;;;10466209;28;20200;-79
2022/07/01 16:25:45;;;;;;;3.63;1.20;;;;;24.00;101386.00;;;;10500577;28;20213;-79
2022/07/01 16:30:47;;;;;;;3.58;0.70;;;;;23.70;101393.00;;;;10507079;28;20185;-79
2022/07/01 16:35:53;;;;;;;2.97;0.70;;;;;23.30;101395.00;;;;10524372;28;20185;-79
2022/07/01 16:41:04;;;;;;;2.55;0.52;;;;;23.10;101392.00;;;;10507494;28;20194;-78
2022/07/01 16:46:15;;;;;;;6.10;0.82;;;;;22.80;101393.00;;;;10523715;28;20710;-79
2022/07/01 16:51:17;;;;;;;2.00;0.88;;;;;23.10;101401.00;;;;10490191;28;20193;-78
2022/07/01 16:56:25;;;;;;;2.42;0.88;;;;;23.10;101402.00;;;;10490754;28;20223;-79
2022/07/01 17:01:28;;;;;;;2.50;0.80;;;;;23.80;101404.00;;;;10511320;28;20253;-78
2022/07/01 17:06:32;;;;;;;4.45;1.48;;;;;23.80;101401.00;;;;10548005;28;20262;-79
2022/07/01 17:11:34;;;;;;;3.80;0.90;;;;;23.60;101410.00;;;;10565394;28;20188;-79
2022/07/01 17:16:37;;;;;;;2.50;0.85;;;;;23.50;101424.00;;;;10497325;28;20203;-79
2022/07/01 17:21:42;;;;;;;2.85;0.68;;;;;23.10;101421.00;;;;10506720;28;20189;-79
2022/07/01 17:27:25;;;;;;;2.45;0.70;;;;;22.70;101437.00;;;;10540032;28;20213;-79
2022/07/01 17:32:36;;;;;;;3.55;1.05;;;;;22.40;101444.00;;;;10388600;28;20584;-79
2022/07/01 17:37:41;;;;;;;3.22;0.80;;;;;22.10;101438.00;;;;10415132;28;20206;-79
2022/07/01 17:42:46;;;;;;;5.63;1.30;;;;;22.00;101447.00;;;;10422057;28;20264;-79
2022/07/01 17:47:50;;;;;;;3.65;1.20;;;;;22.00;101448.00;;;;10456216;28;20277;-79
2022/07/01 17:52:53;;;;;;;4.03;1.00;;;;;22.30;101449.00;;;;10438489;28;20198;-79
2022/07/01 17:57:59;;;;;;;6.05;0.90;;;;;22.50;101451.00;;;;10460762;28;20210;-79
2022/07/01 18:03:03;;;;;;;2.97;1.00;;;;;22.30;101455.00;;;;10479105;28;20240;-79
2022/07/01 18:08:06;;;;;;;3.50;1.33;;;;;22.10;101456.00;;;;10479350;28;20280;-79
2022/07/01 18:13:13;;;;;;;3.63;0.68;;;;;21.70;101454.00;;;;10467402;28;20233;-79
2022/07/01 18:18:20;;;;;;;1.85;0.77;;;;;21.40;101468.00;;;;10471442;28;20685;-79
2022/07/01 18:23:33;;;;;;;3.28;0.90;;;;;21.30;101457.00;;;;10504146;28;20220;-79
2022/07/01 18:28:43;;;;;;;1.70;0.82;;;;;21.30;101456.00;;;;10501549;28;20186;-79
2022/07/01 18:34:13;;;;;;;3.55;1.17;;;;;21.40;101458.00;;;;10445929;28;20194;-79
2022/07/01 18:39:17;;;;;;;5.00;1.67;;;;;21.00;101463.00;;;;10478857;28;20193;-79
2022/07/01 18:44:19;;;;;;;3.30;0.90;;;;;20.50;101463.00;;;;10478173;28;20213;-79
2022/07/01 18:49:21;;;;;;;3.35;1.08;;;;;20.20;101467.00;;;;10461668;28;20248;-79
2022/07/01 18:54:23;;;;;;;3.35;1.10;;;;;19.80;101466.00;;;;10462454;28;20193;-79
2022/07/01 18:59:25;;;;;;;2.92;1.05;;;;;19.60;101467.00;;;;10469838;28;20214;-79
2022/07/01 19:04:27;;;;;;;6.38;1.00;;;;;19.50;101480.00;;;;10469659;28;20208;-79
2022/07/01 19:09:29;;;;;;;4.15;1.33;;;;;19.40;101478.00;;;;10469010;28;20182;-79
2022/07/01 19:14:31;;;;;;;4.18;1.02;;;;;19.40;101482.00;;;;10485567;28;20197;-79
2022/07/01 19:19:33;;;;;;;4.00;1.00;;;;;19.70;101489.00;;;;10469438;28;20198;-79
2022/07/01 19:24:38;;;;;;;4.25;1.05;;;;;19.50;101498.00;;;;10469048;28;20825;-79
2022/07/01 19:29:48;;;;;;;5.40;0.95;;;;;19.40;101504.00;;;;10453742;28;20185;-79
2022/07/01 19:34:50;;;;;;;5.45;1.20;;;;;19.30;101511.00;;;;10452349;28;20267;-79
2022/07/01 19:39:52;;;;;;;1.83;1.05;;;;;19.10;101509.00;;;;10452326;28;20201;-79
2022/07/01 19:44:54;;;;;;;3.60;1.20;;;;;18.80;101519.00;;;;10468207;28;20217;-79
2022/07/01 19:49:56;;;;;;;3.75;1.02;;;;;18.60;101521.00;;;;10450866;28;20197;-79
2022/07/01 19:54:59;;;;;;;2.22;1.23;;;;;18.30;101529.00;;;;10450891;28;20186;-79
2022/07/01 20:00:01;;;;;;;4.05;1.17;;;;;18.20;101537.00;;;;10466100;28;20305;-79
2022/07/01 20:05:06;;;;;;;5.43;1.98;;;;;18.00;101542.00;;;;10472489;28;20325;-79
2022/07/01 20:10:08;;;;;;;3.20;1.00;;;;;17.90;101554.00;;;;10450656;28;20190;-79
2022/07/01 20:15:10;;;;;;;5.43;1.27;;;;;17.90;101553.00;;;;10451451;28;20545;-79
2022/07/01 20:20:12;;;;;;;4.53;1.48;;;;;17.90;101564.00;;;;10508329;28;20555;-79
2022/07/01 20:25:14;;;;;;;2.22;1.20;;;;;18.00;101569.00;;;;10491325;28;20238;-79
2022/07/01 20:30:16;;;;;;;4.22;1.20;;;;;18.00;101573.00;;;;10474409;28;20189;-79
2022/07/01 20:35:20;;;;;;;3.35;1.45;;;;;18.00;101584.00;;;;10482495;28;20252;-79
2022/07/01 20:40:22;;;;;;;3.13;1.40;;;;;18.10;101592.00;;;;10465413;28;20181;-79
2022/07/01 20:45:24;;;;;;;4.00;1.23;;;;;18.10;101595.00;;;;10482073;28;20210;-79
2022/07/01 20:50:26;;;;;;;4.05;1.10;;;;;18.00;101594.00;;;;10432904;28;20190;-79
2022/07/01 20:55:28;;;;;;;7.93;1.10;;;;;18.00;101600.00;;;;10435839;28;20189;-79
2022/07/01 21:00:30;;;;;;;4.05;1.20;;;;;17.90;101598.00;;;;10473906;28;20220;-79
2022/07/01 21:05:32;;;;;;;3.95;1.23;;;;;17.90;101613.00;;;;10480277;28;20205;-79
2022/07/01 21:10:34;;;;;;;2.65;1.10;;;;;17.80;101613.00;;;;10448867;28;20664;-80
2022/07/01 21:15:37;;;;;;;5.03;1.00;;;;;17.70;101617.00;;;;10424589;28;20229;-80
2022/07/01 21:20:39;;;;;;;4.45;1.17;;;;;17.50;101613.00;;;;10429103;28;20197;-79
2022/07/01 21:25:41;;;;;;;1.48;1.10;;;;;17.30;101608.00;;;;10448792;28;20214;-79
2022/07/01 21:30:43;;;;;;;5.05;1.23;;;;;17.10;101618.00;;;;10465288;28;20198;-79
2022/07/01 21:35:47;;;;;;;2.55;0.95;;;;;16.90;101627.00;;;;10448731;28;20269;-79
2022/07/01 21:40:52;;;;;;;4.13;1.08;;;;;16.70;101622.00;;;;10447313;28;20200;-79
2022/07/01 21:46:00;;;;;;;2.53;1.00;;;;;16.50;101628.00;;;;10439194;28;20693;-78
2022/07/01 21:51:03;;;;;;;3.40;1.02;;;;;16.30;101630.00;;;;10407074;28;20675;-80
2022/07/01 21:56:09;;;;;;;3.38;1.33;;;;;16.10;101621.00;;;;10414320;28;20216;-79
2022/07/01 22:01:11;;;;;;;3.53;1.20;;;;;15.90;101618.00;;;;10479854;28;20222;-79
2022/07/01 22:11:23;;;;;;;5.30;1.67;;;;;15.60;101621.00;;;;10405210;28;20194;-80
2022/07/01 22:16:27;;;;;;;4.43;1.13;;;;;15.50;101620.00;;;;10421232;28;20251;-79
2022/07/01 22:21:31;;;;;;;4.23;1.40;;;;;15.30;101624.00;;;;10447228;28;20243;-79
2022/07/01 22:26:34;;;;;;;2.93;1.10;;;;;15.20;101624.00;;;;10430059;28;20220;-79
2022/07/01 22:31:39;;;;;;;4.53;1.37;;;;;15.10;101634.00;;;;10447560;28;20563;-79
2022/07/01 22:36:44;;;;;;;7.97;1.63;;;;;15.00;101635.00;;;;10518485;28;20192;-79
2022/07/01 22:41:47;;;;;;;6.07;1.70;;;;;14.80;101638.00;;;;10518051;28;20200;-79
2022/07/01 22:47:27;;;;;;;3.70;1.70;;;;;14.70;101639.00;;;;10501268;28;20303;-79
2022/07/01 22:53:00;;;;;;;7.73;1.43;;;;;14.60;101641.00;;;;10422788;28;20216;-79
2022/07/01 22:58:22;;;;;;;3.03;1.30;;;;;14.50;101660.00;;;;10501610;28;20212;-79
2022/07/01 23:03:26;;;;;;;3.60;1.87;;;;;14.40;101658.00;;;;10500989;28;20612;-79
2022/07/01 23:08:36;;;;;;;3.03;1.47;;;;;14.30;101664.00;;;;10517995;28;20189;-79
2022/07/01 23:19:19;;;;;;;7.70;2.03;;;;;14.10;101667.00;;;;10475824;28;20203;-79
2022/07/01 23:24:24;;;;;;;3.50;1.57;;;;;14.00;101669.00;;;;10474889;28;20210;-79
2022/07/01 23:29:27;;;;;;;4.17;1.70;;;;;13.90;101677.00;;;;10491202;28;20232;-79
2022/07/01 23:34:31;;;;;;;2.67;1.60;;;;;13.80;101672.00;;;;10469269;28;20224;-79
2022/07/01 23:39:33;;;;;;;4.83;1.70;;;;;13.80;101678.00;;;;10475454;28;20174;-79
2022/07/01 23:44:35;;;;;;;6.43;2.20;;;;;13.80;101686.00;;;;10452012;28;20229;-80
2022/07/01 23:49:38;;;;;;;2.13;1.60;;;;;13.90;101684.00;;;;10452059;28;20288;-79
2022/07/01 23:54:40;;;;;;;3.80;1.67;;;;;14.00;101675.00;;;;10452606;28;20213;-79
2022/07/01 23:59:43;;;;;;;3.53;1.57;;;;;14.10;101670.00;;;;10435387;28;20213;-79
